createdAt,value
2022-12-31T00:01:12.265Z,101005.13
2022-12-31T00:03:40.803Z,101004.47
2022-12-31T00:06:31.361Z,101011.19
2022-12-31T00:09:01.420Z,101013.44
2022-12-31T00:11:31.236Z,101017.00
2022-12-31T00:13:59.287Z,101030.13
2022-12-31T00:16:31.505Z,101018.00
2022-12-31T00:19:01.270Z,101026.44
2022-12-31T00:21:32.121Z,101024.09
2022-12-31T00:24:00.100Z,101030.25
2022-12-31T00:26:32.969Z,101027.22
2022-12-31T00:29:02.080Z,101032.16
2022-12-31T00:31:32.020Z,101037.22
2022-12-31T00:34:00.309Z,101036.41
2022-12-31T00:36:32.476Z,101041.91
2022-12-31T00:39:02.083Z,101047.63
2022-12-31T00:41:30.169Z,101048.66
2022-12-31T00:43:58.047Z,101049.53
2022-12-31T00:46:26.873Z,101050.19
2022-12-31T00:48:55.069Z,101053.91
2022-12-31T00:51:27.678Z,101054.25
2022-12-31T00:53:57.403Z,101057.59
2022-12-31T00:56:29.395Z,101052.53
2022-12-31T00:58:57.815Z,101058.38
2022-12-31T01:01:30.033Z,101060.38
2022-12-31T01:04:13.867Z,101053.53
2022-12-31T01:06:43.438Z,101052.09
2022-12-31T01:09:13.885Z,101053.31
2022-12-31T01:11:42.273Z,101053.53
2022-12-31T01:14:17.615Z,101052.44
2022-12-31T01:16:52.208Z,101049.72
2022-12-31T01:19:27.335Z,101055.22
2022-12-31T01:21:56.527Z,101057.59
2022-12-31T01:24:24.109Z,101067.22
2022-12-31T01:26:52.231Z,101057.03
2022-12-31T01:29:19.834Z,101061.72
2022-12-31T01:31:47.735Z,101065.88
2022-12-31T01:34:15.292Z,101061.19
2022-12-31T01:36:43.100Z,101067.44
2022-12-31T01:39:12.270Z,101060.63
2022-12-31T01:41:42.835Z,101068.91
2022-12-31T01:44:13.050Z,101054.88
2022-12-31T01:47:01.141Z,101057.44
2022-12-31T01:49:51.492Z,101067.41
2022-12-31T01:52:38.520Z,101055.09
2022-12-31T01:55:31.975Z,101058.22
2022-12-31T01:58:19.787Z,101053.28
2022-12-31T02:00:48.249Z,101055.31
2022-12-31T02:03:16.275Z,101061.81
2022-12-31T02:05:58.465Z,101061.50
2022-12-31T02:08:26.291Z,101058.69
2022-12-31T02:10:53.842Z,101069.88
2022-12-31T02:13:22.056Z,101078.19
2022-12-31T02:16:12.569Z,101069.13
2022-12-31T02:18:56.334Z,101067.41
2022-12-31T02:21:41.487Z,101077.31
2022-12-31T02:24:31.577Z,101068.00
2022-12-31T02:27:10.059Z,101065.97
2022-12-31T02:30:08.643Z,101059.00
2022-12-31T02:32:56.326Z,101070.09
2022-12-31T02:35:45.944Z,101062.47
2022-12-31T02:38:26.935Z,101069.00
2022-12-31T02:40:55.262Z,101071.03
2022-12-31T02:43:23.969Z,101072.59
2022-12-31T02:46:42.563Z,101073.50
2022-12-31T02:50:03.251Z,101072.81
2022-12-31T02:52:59.027Z,101081.09
2022-12-31T02:55:42.031Z,101082.00
2022-12-31T02:58:57.353Z,101093.63
2022-12-31T03:01:51.669Z,101085.72
2022-12-31T03:04:33.415Z,101096.50
2022-12-31T03:07:11.492Z,101095.78
2022-12-31T03:09:39.782Z,101097.44
2022-12-31T03:12:29.474Z,101094.97
2022-12-31T03:14:58.114Z,101094.94
2022-12-31T03:17:26.443Z,101096.63
2022-12-31T03:20:12.954Z,101100.97
2022-12-31T03:22:43.210Z,101096.44
2022-12-31T03:25:35.768Z,101103.22
2022-12-31T03:28:15.638Z,101100.06
2022-12-31T03:30:49.353Z,101093.78
2022-12-31T03:33:17.525Z,101096.00
2022-12-31T03:35:48.037Z,101082.53
2022-12-31T03:38:16.839Z,101086.13
2022-12-31T03:40:49.177Z,101084.44
2022-12-31T03:43:16.979Z,101091.28
2022-12-31T03:45:47.776Z,101092.13
2022-12-31T03:48:15.266Z,101088.69
2022-12-31T03:50:43.067Z,101093.59
2022-12-31T03:53:11.400Z,101088.28
2022-12-31T03:55:39.323Z,101091.91
2022-12-31T03:58:07.035Z,101095.34
2022-12-31T04:00:35.242Z,101094.88
2022-12-31T04:03:02.821Z,101093.09
2022-12-31T04:05:31.332Z,101105.69
2022-12-31T04:07:58.832Z,101104.06
2022-12-31T04:10:26.714Z,101105.94
2022-12-31T04:12:54.255Z,101107.91
2022-12-31T04:15:22.417Z,101108.72
2022-12-31T04:17:49.924Z,101112.63
2022-12-31T04:20:17.826Z,101099.50
2022-12-31T04:22:45.347Z,101095.72
2022-12-31T04:25:13.504Z,101105.81
2022-12-31T04:27:43.777Z,101111.97
2022-12-31T04:30:14.156Z,101115.44
2022-12-31T04:32:42.205Z,101113.88
2022-12-31T04:35:11.730Z,101122.75
2022-12-31T04:37:39.806Z,101124.19
2022-12-31T04:40:12.100Z,101125.13
2022-12-31T04:42:41.385Z,101120.25
2022-12-31T04:45:09.905Z,101122.75
2022-12-31T04:47:37.692Z,101115.00
2022-12-31T04:50:06.574Z,101130.38
2022-12-31T04:52:38.737Z,101124.66
2022-12-31T04:55:12.032Z,101127.59
2022-12-31T04:57:41.473Z,101133.19
2022-12-31T05:00:10.361Z,101143.63
2022-12-31T05:02:38.294Z,101143.63
2022-12-31T05:05:07.155Z,101149.94
2022-12-31T05:07:35.187Z,101154.06
2022-12-31T05:10:04.211Z,101155.78
2022-12-31T05:12:31.846Z,101161.59
2022-12-31T05:14:59.781Z,101158.06
2022-12-31T05:17:27.271Z,101160.34
2022-12-31T05:19:55.275Z,101158.66
2022-12-31T05:22:31.942Z,101144.19
2022-12-31T05:25:01.745Z,101147.84
2022-12-31T05:27:33.318Z,101167.88
2022-12-31T05:30:01.273Z,101159.34
2022-12-31T05:32:29.284Z,101166.78
2022-12-31T05:34:59.716Z,101160.13
2022-12-31T05:37:31.351Z,101155.72
2022-12-31T05:39:59.654Z,101166.75
2022-12-31T05:42:27.848Z,101169.09
2022-12-31T05:44:55.835Z,101173.16
2022-12-31T05:47:25.108Z,101172.97
2022-12-31T05:49:53.847Z,101176.72
2022-12-31T05:52:22.647Z,101182.63
2022-12-31T05:54:50.714Z,101177.03
2022-12-31T05:57:18.767Z,101183.44
2022-12-31T05:59:46.762Z,101185.88
2022-12-31T06:02:14.318Z,101184.38
2022-12-31T06:04:42.211Z,101191.16
2022-12-31T06:07:09.803Z,101187.50
2022-12-31T06:09:37.660Z,101197.25
2022-12-31T06:12:06.288Z,101197.81
2022-12-31T06:14:34.836Z,101192.41
2022-12-31T06:17:03.447Z,101198.25
2022-12-31T06:19:31.496Z,101207.72
2022-12-31T06:21:59.081Z,101205.59
2022-12-31T06:24:26.943Z,101204.41
2022-12-31T06:26:54.591Z,101199.69
2022-12-31T06:29:22.451Z,101202.63
2022-12-31T06:31:49.912Z,101201.50
2022-12-31T06:34:17.936Z,101202.28
2022-12-31T06:36:45.545Z,101204.53
2022-12-31T06:39:13.382Z,101206.69
2022-12-31T06:41:41.070Z,101221.84
2022-12-31T06:44:08.941Z,101219.63
2022-12-31T06:46:36.523Z,101217.59
2022-12-31T06:49:04.374Z,101209.97
2022-12-31T06:51:31.909Z,101209.31
2022-12-31T06:53:59.803Z,101208.97
2022-12-31T06:56:34.404Z,101213.72
2022-12-31T06:59:05.087Z,101217.75
2022-12-31T07:02:01.143Z,101222.94
2022-12-31T07:04:55.839Z,101239.63
2022-12-31T07:08:06.383Z,101255.91
2022-12-31T07:11:04.373Z,101261.41
2022-12-31T07:14:22.034Z,101255.25
2022-12-31T07:16:59.865Z,101255.97
2022-12-31T07:20:01.108Z,101249.97
2022-12-31T07:22:29.801Z,101254.00
2022-12-31T07:24:57.946Z,101258.69
2022-12-31T07:27:53.135Z,101263.78
2022-12-31T07:30:24.555Z,101255.75
2022-12-31T07:33:20.392Z,101264.97
2022-12-31T07:36:29.079Z,101263.25
2022-12-31T07:39:02.431Z,101267.59
2022-12-31T07:41:47.848Z,101264.69
2022-12-31T07:44:24.873Z,101264.72
2022-12-31T07:47:01.813Z,101268.56
2022-12-31T07:49:33.484Z,101277.38
2022-12-31T07:52:04.716Z,101283.25
2022-12-31T07:54:32.783Z,101290.47
2022-12-31T07:57:01.151Z,101294.53
2022-12-31T08:00:05.651Z,101300.41
2022-12-31T08:03:11.924Z,101303.22
2022-12-31T08:05:50.910Z,101311.00
2022-12-31T08:08:29.515Z,101305.81
2022-12-31T08:12:09.053Z,101318.28
2022-12-31T08:14:54.712Z,101323.34
2022-12-31T08:17:23.179Z,101321.09
2022-12-31T08:19:51.389Z,101328.44
2022-12-31T08:22:41.456Z,101326.56
2022-12-31T08:42:48.443Z,101358.13
2022-12-31T08:45:53.146Z,101362.56
2022-12-31T08:48:47.906Z,101369.28
2022-12-31T08:51:25.687Z,101378.03
2022-12-31T08:53:55.397Z,101375.41
2022-12-31T08:56:50.195Z,101381.47
2022-12-31T08:59:34.124Z,101385.75
2022-12-31T09:02:08.330Z,101393.34
2022-12-31T09:05:05.801Z,101390.84
2022-12-31T09:07:50.856Z,101391.63
2022-12-31T09:11:08.891Z,101388.28
2022-12-31T09:14:02.543Z,101373.75
2022-12-31T09:17:17.988Z,101371.00
2022-12-31T09:19:46.390Z,101368.59
2022-12-31T09:22:14.408Z,101370.59
2022-12-31T09:24:42.648Z,101362.94
2022-12-31T09:27:46.285Z,101362.69
2022-12-31T09:30:17.859Z,101362.47
2022-12-31T09:33:17.591Z,101368.38
2022-12-31T09:35:56.096Z,101363.19
2022-12-31T09:38:37.421Z,101362.59
2022-12-31T09:41:25.470Z,101365.94
2022-12-31T09:44:20.676Z,101366.22
2022-12-31T09:47:46.489Z,101360.91
2022-12-31T09:50:29.105Z,101364.41
2022-12-31T09:53:19.013Z,101373.19
2022-12-31T09:56:14.485Z,101371.72
2022-12-31T09:58:48.472Z,101370.16
2022-12-31T10:01:45.299Z,101371.72
2022-12-31T10:04:42.826Z,101363.97
2022-12-31T10:07:15.765Z,101368.56
2022-12-31T10:10:14.522Z,101373.19
2022-12-31T10:13:03.315Z,101363.06
2022-12-31T10:16:12.012Z,101353.72
2022-12-31T10:18:53.852Z,101347.66
2022-12-31T10:21:36.592Z,101346.97
2022-12-31T10:24:34.131Z,101347.09
2022-12-31T10:27:36.737Z,101355.75
2022-12-31T10:30:24.211Z,101360.91
2022-12-31T10:33:20.964Z,101358.34
2022-12-31T10:36:28.788Z,101358.00
2022-12-31T10:39:26.909Z,101365.44
2022-12-31T10:42:25.326Z,101349.00
2022-12-31T10:45:19.756Z,101342.94
2022-12-31T10:48:05.210Z,101345.72
2022-12-31T10:51:26.282Z,101344.97
2022-12-31T10:54:28.075Z,101339.09
2022-12-31T10:57:20.619Z,101344.56
2022-12-31T11:00:11.585Z,101350.75
2022-12-31T11:02:58.159Z,101360.63
2022-12-31T11:05:56.249Z,101359.25
2022-12-31T11:09:02.261Z,101359.25
2022-12-31T11:12:00.781Z,101351.38
2022-12-31T11:14:39.877Z,101352.19
2022-12-31T11:17:45.615Z,101352.97
2022-12-31T11:20:23.862Z,101363.09
2022-12-31T11:23:38.796Z,101364.06
2022-12-31T11:26:32.174Z,101366.66
2022-12-31T11:29:25.798Z,101353.59
2022-12-31T11:32:13.091Z,101352.66
2022-12-31T11:35:10.154Z,101341.34
2022-12-31T11:37:47.553Z,101340.41
2022-12-31T11:40:59.369Z,101338.31
2022-12-31T11:43:50.125Z,101333.25
2022-12-31T11:46:39.259Z,101336.38
2022-12-31T11:49:34.307Z,101338.72
2022-12-31T11:52:41.713Z,101335.41
2022-12-31T11:55:38.255Z,101336.69
2022-12-31T11:58:20.470Z,101332.56
2022-12-31T12:01:21.252Z,101328.88
2022-12-31T12:03:49.415Z,101333.84
2022-12-31T12:06:24.950Z,101332.63
2022-12-31T12:08:55.968Z,101328.78
2022-12-31T12:11:29.934Z,101329.94
2022-12-31T12:13:58.055Z,101328.72
2022-12-31T12:16:28.380Z,101328.91
2022-12-31T12:19:07.315Z,101331.16
2022-12-31T12:21:35.082Z,101332.47
2022-12-31T12:24:17.182Z,101332.41
2022-12-31T12:26:45.591Z,101328.44
2022-12-31T12:29:32.249Z,101334.09
2022-12-31T12:32:15.041Z,101334.41
2022-12-31T12:34:49.155Z,101319.63
2022-12-31T12:37:34.712Z,101324.19
2022-12-31T12:40:19.051Z,101326.41
2022-12-31T12:42:51.379Z,101325.59
2022-12-31T12:45:30.255Z,101325.59
2022-12-31T12:48:01.208Z,101317.31
2022-12-31T12:50:46.952Z,101330.50
2022-12-31T12:53:42.706Z,101341.78
2022-12-31T12:56:31.966Z,101338.75
2022-12-31T12:59:37.854Z,101343.13
2022-12-31T13:02:48.861Z,101347.53
2022-12-31T13:05:46.650Z,101351.50
2022-12-31T13:08:29.041Z,101347.78
2022-12-31T13:11:32.828Z,101340.81
2022-12-31T13:14:22.313Z,101337.81
2022-12-31T13:17:31.380Z,101341.81
2022-12-31T13:20:22.803Z,101338.13
2022-12-31T13:23:27.588Z,101337.47
2022-12-31T13:26:27.002Z,101357.41
2022-12-31T13:28:56.746Z,101358.63
2022-12-31T13:31:33.876Z,101356.38
2022-12-31T13:34:13.299Z,101361.16
2022-12-31T13:36:45.085Z,101363.53
2022-12-31T13:39:32.333Z,101358.88
2022-12-31T13:42:24.496Z,101357.28
2022-12-31T13:45:00.913Z,101355.28
2022-12-31T13:47:42.308Z,101355.47
2022-12-31T13:50:36.480Z,101355.28
2022-12-31T13:53:37.134Z,101358.91
2022-12-31T13:56:21.983Z,101367.47
2022-12-31T13:59:00.509Z,101362.84
2022-12-31T14:01:34.454Z,101360.16
2022-12-31T14:04:18.962Z,101366.34
2022-12-31T14:07:32.229Z,101357.00
2022-12-31T14:10:03.400Z,101363.56
2022-12-31T14:13:10.285Z,101365.59
2022-12-31T14:16:21.034Z,101377.63
2022-12-31T14:19:08.922Z,101374.09
2022-12-31T14:22:09.628Z,101375.38
2022-12-31T14:24:51.151Z,101368.44
2022-12-31T14:27:43.319Z,101374.59
2022-12-31T14:30:19.512Z,101368.75
2022-12-31T14:33:04.999Z,101370.16
2022-12-31T14:36:10.370Z,101375.16
2022-12-31T14:38:45.510Z,101381.28
2022-12-31T14:42:12.490Z,101374.59
2022-12-31T14:45:35.851Z,101382.75
2022-12-31T14:48:26.104Z,101372.34
2022-12-31T14:50:55.063Z,101372.75
2022-12-31T14:53:26.915Z,101372.19
2022-12-31T14:56:40.198Z,101366.66
2022-12-31T15:00:21.271Z,101373.66
2022-12-31T15:02:53.497Z,101363.97
2022-12-31T15:05:25.703Z,101379.06
2022-12-31T15:08:14.256Z,101389.66
2022-12-31T15:11:26.788Z,101395.41
2022-12-31T15:14:33.697Z,101407.31
2022-12-31T15:17:43.872Z,101417.94
2022-12-31T15:20:35.389Z,101413.25
2022-12-31T15:23:11.891Z,101412.47
2022-12-31T15:25:41.620Z,101417.44
2022-12-31T15:28:35.699Z,101415.53
2022-12-31T15:31:19.158Z,101423.72
2022-12-31T15:34:34.895Z,101418.75
2022-12-31T15:37:07.150Z,101409.06
2022-12-31T15:39:34.945Z,101404.16
2022-12-31T15:42:36.882Z,101404.69
2022-12-31T15:45:00.620Z,101396.38
2022-12-31T15:47:41.631Z,101401.44
2022-12-31T15:50:22.595Z,101393.81
2022-12-31T15:53:00.928Z,101402.34
2022-12-31T15:55:50.969Z,101407.75
2022-12-31T15:58:26.381Z,101399.66
2022-12-31T16:01:24.830Z,101408.69
2022-12-31T16:04:14.280Z,101410.25
2022-12-31T16:06:48.931Z,101397.53
2022-12-31T16:09:39.892Z,101395.63
2022-12-31T16:12:30.798Z,101404.50
2022-12-31T16:15:00.623Z,101404.84
2022-12-31T16:17:31.165Z,101406.75
2022-12-31T16:20:01.552Z,101416.78
2022-12-31T16:22:38.437Z,101419.59
2022-12-31T16:25:32.341Z,101426.22
2022-12-31T16:28:03.739Z,101422.41
2022-12-31T16:30:36.399Z,101422.84
2022-12-31T16:33:12.569Z,101420.13
2022-12-31T16:35:40.480Z,101420.91
2022-12-31T16:38:19.590Z,101422.06
2022-12-31T16:41:02.482Z,101422.84
2022-12-31T16:43:43.248Z,101414.28
2022-12-31T16:46:28.902Z,101421.25
2022-12-31T16:49:03.053Z,101424.44
2022-12-31T16:51:33.892Z,101419.03
2022-12-31T16:54:02.766Z,101420.25
2022-12-31T16:56:38.137Z,101410.91
2022-12-31T16:59:40.175Z,101408.22
2022-12-31T17:02:20.951Z,101418.22
2022-12-31T17:04:55.899Z,101422.16
2022-12-31T17:07:32.624Z,101424.88
2022-12-31T17:10:09.458Z,101429.13
2022-12-31T17:13:25.324Z,101432.19
2022-12-31T17:15:43.446Z,101436.34
2022-12-31T17:18:38.704Z,101428.59
2022-12-31T17:21:10.168Z,101430.50
2022-12-31T17:23:39.928Z,101431.63
2022-12-31T17:26:14.971Z,101431.63
2022-12-31T17:28:52.894Z,101434.31
2022-12-31T17:31:43.236Z,101433.22
2022-12-31T17:34:13.503Z,101438.59
2022-12-31T17:37:15.889Z,101434.31
2022-12-31T17:39:54.666Z,101425.78
2022-12-31T17:42:34.487Z,101431.19
2022-12-31T17:45:28.023Z,101434.31
2022-12-31T17:48:00.519Z,101431.38
2022-12-31T17:50:28.745Z,101433.75
2022-12-31T17:53:11.677Z,101435.00
2022-12-31T17:55:39.655Z,101433.09
2022-12-31T17:58:08.139Z,101439.28
2022-12-31T18:00:37.756Z,101430.81
2022-12-31T18:03:05.706Z,101439.38
2022-12-31T18:05:33.330Z,101439.03
2022-12-31T18:08:01.142Z,101436.56
2022-12-31T18:10:35.315Z,101433.66
2022-12-31T18:13:07.065Z,101427.69
2022-12-31T18:15:34.677Z,101431.28
2022-12-31T18:18:12.270Z,101433.84
2022-12-31T18:20:39.890Z,101435.63
2022-12-31T18:23:17.780Z,101428.56
2022-12-31T18:28:13.239Z,101424.84
2022-12-31T18:30:41.043Z,101434.75
2022-12-31T18:33:12.955Z,101419.19
2022-12-31T18:36:07.828Z,101426.84
2022-12-31T18:38:30.840Z,101421.00
2022-12-31T18:40:59.527Z,101419.75
2022-12-31T18:43:27.556Z,101426.63
2022-12-31T18:45:55.126Z,101426.84
2022-12-31T18:48:23.011Z,101431.81
2022-12-31T18:50:51.074Z,101432.81
2022-12-31T18:53:22.805Z,101441.03
2022-12-31T18:55:56.821Z,101434.97
2022-12-31T18:58:24.895Z,101435.31
2022-12-31T19:00:52.986Z,101425.97
2022-12-31T19:03:24.299Z,101427.31
2022-12-31T19:05:52.430Z,101424.06
2022-12-31T19:08:22.756Z,101422.34
2022-12-31T19:10:52.308Z,101423.00
2022-12-31T19:13:20.910Z,101416.84
2022-12-31T19:15:52.250Z,101424.59
2022-12-31T19:18:20.357Z,101414.69
2022-12-31T19:20:48.037Z,101427.97
2022-12-31T19:23:20.615Z,101430.56
2022-12-31T19:25:49.794Z,101444.66
2022-12-31T19:28:18.724Z,101443.22
2022-12-31T19:30:46.603Z,101435.31
2022-12-31T19:33:15.268Z,101444.22
2022-12-31T19:35:43.676Z,101434.19
2022-12-31T19:38:25.478Z,101442.28
2022-12-31T19:40:54.130Z,101448.03
2022-12-31T19:43:23.719Z,101440.16
2022-12-31T19:45:51.832Z,101441.38
2022-12-31T19:48:32.074Z,101438.31
2022-12-31T19:51:00.650Z,101444.38
2022-12-31T19:53:28.855Z,101448.22
2022-12-31T19:55:57.043Z,101450.13
2022-12-31T19:58:27.209Z,101445.97
2022-12-31T20:01:01.922Z,101443.72
2022-12-31T20:03:32.764Z,101443.06
2022-12-31T20:06:09.898Z,101440.81
2022-12-31T20:08:39.963Z,101440.91
2022-12-31T20:11:18.138Z,101440.91
2022-12-31T20:13:48.368Z,101443.50
2022-12-31T20:16:19.673Z,101441.25
2022-12-31T20:18:48.453Z,101444.88
2022-12-31T20:21:23.225Z,101433.84
2022-12-31T20:23:53.534Z,101434.63
2022-12-31T20:26:24.161Z,101444.03
2022-12-31T20:28:53.177Z,101436.25
2022-12-31T20:31:25.276Z,101437.03
2022-12-31T20:33:54.789Z,101438.63
2022-12-31T20:36:23.144Z,101437.47
2022-12-31T20:38:51.329Z,101443.69
2022-12-31T20:41:21.921Z,101445.56
2022-12-31T20:43:50.910Z,101448.72
2022-12-31T20:46:24.955Z,101442.22
2022-12-31T20:48:55.598Z,101437.81
2022-12-31T20:51:24.652Z,101438.63
2022-12-31T20:54:00.538Z,101435.91
2022-12-31T20:56:32.183Z,101435.63
2022-12-31T20:59:01.303Z,101438.34
2022-12-31T21:01:47.805Z,101439.16
2022-12-31T21:04:17.454Z,101439.25
2022-12-31T21:06:45.409Z,101438.44
2022-12-31T21:09:14.106Z,101444.34
2022-12-31T21:12:00.423Z,101443.22
2022-12-31T21:14:29.148Z,101447.84
2022-12-31T21:16:56.691Z,101445.78
2022-12-31T21:19:24.625Z,101446.91
2022-12-31T21:21:52.299Z,101452.31
2022-12-31T21:24:23.870Z,101456.78
2022-12-31T21:26:55.229Z,101455.91
2022-12-31T21:29:23.700Z,101448.78
2022-12-31T21:31:51.357Z,101455.69
2022-12-31T21:34:19.268Z,101459.03
2022-12-31T21:36:46.883Z,101455.41
2022-12-31T21:39:14.850Z,101461.16
2022-12-31T21:41:51.406Z,101479.25
2022-12-31T21:44:22.003Z,101471.03
2022-12-31T21:47:33.261Z,101465.97
2022-12-31T21:49:44.667Z,101464.06
2022-12-31T21:52:34.035Z,101472.97
2022-12-31T21:55:24.076Z,101472.16
2022-12-31T21:58:24.743Z,101469.94
2022-12-31T22:00:59.172Z,101467.69
2022-12-31T22:03:29.557Z,101470.94
2022-12-31T22:06:12.512Z,101464.53
2022-12-31T22:08:45.411Z,101469.97
2022-12-31T22:11:15.254Z,101461.59
2022-12-31T22:13:42.836Z,101464.66
2022-12-31T22:16:13.245Z,101466.09
2022-12-31T22:18:44.069Z,101472.38
2022-12-31T22:21:22.217Z,101471.03
2022-12-31T22:23:53.297Z,101462.88
2022-12-31T22:26:25.866Z,101468.44
2022-12-31T22:28:59.087Z,101463.25
2022-12-31T22:31:30.278Z,101461.50
2022-12-31T22:33:58.820Z,101466.31
2022-12-31T22:36:26.942Z,101460.13
2022-12-31T22:38:59.421Z,101465.03
2022-12-31T22:41:28.585Z,101462.38
2022-12-31T22:44:03.693Z,101465.25
2022-12-31T22:46:33.542Z,101469.56
2022-12-31T22:49:03.965Z,101475.44
2022-12-31T22:51:56.390Z,101480.53
2022-12-31T22:54:20.797Z,101467.91
2022-12-31T22:56:48.975Z,101456.84
2022-12-31T22:59:16.590Z,101466.66
2022-12-31T23:01:44.651Z,101454.94
2022-12-31T23:04:12.334Z,101465.53
2022-12-31T23:06:44.238Z,101470.63
2022-12-31T23:09:32.559Z,101463.03
2022-12-31T23:12:01.504Z,101475.22
2022-12-31T23:14:47.735Z,101470.16
2022-12-31T23:17:38.818Z,101464.47
2022-12-31T23:20:32.259Z,101472.69
2022-12-31T23:23:12.849Z,101477.09
2022-12-31T23:25:44.504Z,101483.28
2022-12-31T23:28:20.138Z,101485.94
2022-12-31T23:30:47.957Z,101483.75
2022-12-31T23:33:22.841Z,101485.00
2022-12-31T23:35:50.903Z,101491.44
2022-12-31T23:38:19.180Z,101496.34
2022-12-31T23:40:46.756Z,101486.06
2022-12-31T23:43:21.876Z,101487.78
2022-12-31T23:45:51.483Z,101482.56
2022-12-31T23:48:19.586Z,101482.88
2022-12-31T23:50:53.577Z,101489.03
2022-12-31T23:53:25.098Z,101483.66
2022-12-31T23:55:53.762Z,101489.19
2022-12-31T23:58:22.456Z,101489.19
